Time;durP1;ratioP1;P1;durP2;ratioP2;P2;SDS_P1;SDS_P2;PMS_P1;PMS_P2;Temp;Humidity;BMP_temperature;BMP_pressure;BME280_temperature;BME280_humidity;BME280_pressure;Samples;Min_cycle;Max_cycle;Signal;HPM_P1;HPM_P2
2023/01/17 00:01:16;;;;;;;1.70;0.20;;;3.00;99.90;;;;;;5063034;28;20053;-69
2023/01/17 00:11:56;;;;;;;6.40;0.35;;;3.30;99.90;;;;;;5065667;28;20035;-69
2023/01/17 00:14:21;;;;;;;3.75;0.40;;;3.30;99.90;;;;;;5067346;28;20029;-69
2023/01/17 00:16:47;;;;;;;5.70;0.40;;;3.30;99.90;;;;;;5057133;28;20033;-69
2023/01/17 01:33:48;;;;;;;1.27;0.00;;;1.40;99.90;;;;;;5065532;28;20082;-70
2023/01/17 01:36:14;;;;;;;4.03;0.10;;;1.40;99.90;;;;;;5073666;28;20020;-70
2023/01/17 01:38:39;;;;;;;0.65;0.00;;;1.40;99.90;;;;;;5054599;28;20029;-70
2023/01/17 01:41:05;;;;;;;0.98;0.10;;;1.50;99.90;;;;;;5072495;28;20043;-70
2023/01/17 01:43:54;;;;;;;0.50;0.00;;;1.50;99.90;;;;;;5073223;28;20036;-70
2023/01/17 01:46:25;;;;;;;1.77;0.10;;;1.50;99.90;;;;;;5072655;28;20039;-70
2023/01/17 01:49:11;;;;;;;0.30;0.10;;;1.50;99.90;;;;;;5070373;28;20058;-69
2023/01/17 01:51:45;;;;;;;0.43;0.10;;;1.50;99.90;;;;;;5070679;28;20092;-70
2023/01/17 01:54:21;;;;;;;0.30;0.08;;;1.40;99.90;;;;;;5065067;28;20055;-70
2023/01/17 01:56:48;;;;;;;0.10;0.00;;;1.50;99.90;;;;;;5078190;28;20025;-70
2023/01/17 01:59:18;;;;;;;0.20;0.00;;;1.40;99.90;;;;;;5064777;28;20017;-70
2023/01/17 02:01:43;;;;;;;0.28;0.00;;;1.40;99.90;;;;;;5060822;28;20043;-70
2023/01/17 02:04:10;;;;;;;0.60;0.10;;;1.40;99.90;;;;;;5070053;28;20016;-70
2023/01/17 02:06:44;;;;;;;0.65;0.00;;;1.40;99.90;;;;;;5072046;28;20036;-70
2023/01/17 02:09:11;;;;;;;2.88;0.10;;;1.40;99.90;;;;;;5059082;28;20104;-70
2023/01/17 02:11:38;;;;;;;0.82;0.10;;;1.30;99.90;;;;;;5069605;28;20075;-70
2023/01/17 02:14:04;;;;;;;0.30;0.10;;;1.30;99.90;;;;;;5061751;28;20217;-69
2023/01/17 02:16:46;;;;;;;0.25;0.10;;;1.30;99.90;;;;;;5070170;28;20089;-70
2023/01/17 02:19:40;;;;;;;0.30;0.10;;;1.20;99.90;;;;;;5070163;28;20549;-69
2023/01/17 02:22:50;;;;;;;0.80;0.17;;;1.20;99.90;;;;;;5075077;28;20035;-70
2023/01/17 02:25:34;;;;;;;0.85;0.20;;;1.20;99.90;;;;;;5072181;28;20047;-70
2023/01/17 02:28:24;;;;;;;0.88;0.20;;;1.20;99.90;;;;;;5074552;28;20573;-69
2023/01/17 02:30:57;;;;;;;1.00;0.20;;;1.20;99.90;;;;;;5073817;28;20024;-69
2023/01/17 02:33:41;;;;;;;;;;;1.20;99.90;;;;;;5061416;28;20025;-69
2023/01/17 02:36:29;;;;;;;1.73;0.35;;;1.20;99.90;;;;;;5085432;28;19908;-68
2023/01/17 02:39:16;;;;;;;0.90;0.25;;;1.30;99.90;;;;;;5065275;28;20036;-69
2023/01/17 02:41:45;;;;;;;4.32;0.50;;;1.30;99.90;;;;;;5083474;28;20043;-69
2023/01/17 02:44:17;;;;;;;7.45;0.50;;;1.40;99.90;;;;;;5076404;28;20564;-69
2023/01/17 02:46:50;;;;;;;5.03;0.60;;;1.40;99.90;;;;;;5082376;28;20448;-69
2023/01/17 02:49:18;;;;;;;5.10;0.60;;;1.40;99.90;;;;;;5084331;28;20119;-69
2023/01/17 02:52:36;;;;;;;1.80;0.35;;;1.40;99.90;;;;;;5077194;28;20032;-69
2023/01/17 02:55:26;;;;;;;2.03;0.50;;;1.40;99.90;;;;;;5030705;28;20494;-69
2023/01/17 02:58:06;;;;;;;2.97;0.40;;;1.30;99.90;;;;;;5071425;28;20058;-69
2023/01/17 03:01:05;;;;;;;2.45;0.32;;;1.20;99.90;;;;;;5071415;28;20037;-69
2023/01/17 03:04:13;;;;;;;1.20;0.20;;;1.10;99.90;;;;;;5079637;28;20032;-69
2023/01/17 03:06:45;;;;;;;2.88;0.30;;;1.00;99.90;;;;;;5082141;28;20067;-69
2023/01/17 03:09:12;;;;;;;1.57;0.30;;;0.90;99.90;;;;;;5069677;28;20021;-69
2023/01/17 03:11:38;;;;;;;2.83;0.30;;;0.90;99.90;;;;;;5071553;28;20399;-70
2023/01/17 03:14:03;;;;;;;1.75;0.30;;;0.90;99.90;;;;;;5059903;28;20024;-70
2023/01/17 03:16:31;;;;;;;2.55;0.30;;;0.80;99.90;;;;;;5069641;28;20043;-69
2023/01/17 03:18:57;;;;;;;1.40;0.20;;;0.80;99.90;;;;;;5067139;28;20025;-69
2023/01/17 03:21:23;;;;;;;2.92;0.47;;;0.80;99.90;;;;;;5058192;28;20036;-70
2023/01/17 03:23:49;;;;;;;4.65;0.75;;;0.80;99.90;;;;;;5062519;28;20086;-69
2023/01/17 03:26:15;;;;;;;1.92;0.60;;;0.80;99.90;;;;;;5066424;28;20040;-70
2023/01/17 03:28:42;;;;;;;5.30;0.60;;;0.70;99.90;;;;;;5066644;28;20503;-70
2023/01/17 03:31:07;;;;;;;4.15;0.70;;;0.70;99.90;;;;;;5065455;28;20625;-70
2023/01/17 03:33:33;;;;;;;3.47;0.80;;;0.70;99.90;;;;;;5061559;28;20036;-70
2023/01/17 03:35:58;;;;;;;4.65;0.70;;;0.70;99.90;;;;;;5060420;28;20033;-70
2023/01/17 03:38:25;;;;;;;5.43;0.70;;;0.70;99.90;;;;;;5064163;28;20033;-70
2023/01/17 03:40:51;;;;;;;10.05;1.00;;;0.70;99.90;;;;;;5063052;28;20114;-69
2023/01/17 03:43:16;;;;;;;4.30;1.10;;;0.70;99.90;;;;;;5060891;28;20028;-70
2023/01/17 03:45:42;;;;;;;6.30;1.13;;;0.70;99.90;;;;;;5058837;28;20048;-69
2023/01/17 03:48:07;;;;;;;7.95;1.60;;;0.70;99.90;;;;;;5085622;28;20027;-70
2023/01/17 03:50:33;;;;;;;4.78;1.80;;;0.70;99.90;;;;;;5062784;28;20035;-69
2023/01/17 03:52:58;;;;;;;9.60;2.22;;;0.80;99.90;;;;;;5078567;28;20044;-69
2023/01/17 03:55:24;;;;;;;6.80;1.30;;;0.80;99.90;;;;;;5066604;28;20085;-70
2023/01/17 03:57:50;;;;;;;12.43;1.42;;;0.90;99.90;;;;;;5073295;28;20043;-70
2023/01/17 04:00:16;;;;;;;3.60;1.05;;;0.90;99.90;;;;;;5072148;28;20025;-69
2023/01/17 04:02:41;;;;;;;8.43;0.90;;;0.90;99.90;;;;;;5060737;28;20116;-69
2023/01/17 04:05:07;;;;;;;3.20;0.50;;;0.90;99.90;;;;;;5072424;28;20025;-70
2023/01/17 04:07:33;;;;;;;4.53;0.80;;;1.00;99.90;;;;;;5062116;28;20413;-70
2023/01/17 04:09:58;;;;;;;8.20;0.80;;;1.00;99.90;;;;;;5066621;28;20024;-69
2023/01/17 04:12:24;;;;;;;2.47;0.30;;;1.00;99.90;;;;;;5055597;28;20024;-69
2023/01/17 04:14:49;;;;;;;2.03;0.30;;;1.00;99.90;;;;;;5067061;28;20028;-69
2023/01/17 04:17:17;;;;;;;3.67;0.40;;;1.00;99.90;;;;;;5063916;28;20395;-69
2023/01/17 04:19:43;;;;;;;4.88;0.50;;;0.90;99.90;;;;;;5071364;28;20443;-68
2023/01/17 04:22:08;;;;;;;1.88;0.40;;;0.90;99.90;;;;;;5069828;28;20039;-68
2023/01/17 04:24:34;;;;;;;3.90;0.98;;;0.90;99.90;;;;;;5076173;28;20503;-69
2023/01/17 04:27:00;;;;;;;11.60;0.82;;;0.90;99.90;;;;;;5067645;28;20037;-69
2023/01/17 04:29:25;;;;;;;9.35;0.90;;;0.90;99.90;;;;;;5070690;28;20021;-69
2023/01/17 04:31:51;;;;;;;3.83;0.70;;;0.90;99.90;;;;;;5071050;28;20029;-70
2023/01/17 04:34:16;;;;;;;4.60;2.35;;;0.90;99.90;;;;;;5068166;28;20032;-70
2023/01/17 04:36:42;;;;;;;3.78;1.10;;;0.90;99.90;;;;;;5078452;28;20033;-70
2023/01/17 04:39:08;;;;;;;6.82;1.00;;;0.90;99.90;;;;;;5062934;28;20086;-71
2023/01/17 04:41:33;;;;;;;8.85;1.25;;;0.90;99.90;;;;;;5051736;28;20453;-71
2023/01/17 04:43:59;;;;;;;6.95;0.85;;;0.90;99.90;;;;;;5050490;28;20544;-70
2023/01/17 04:46:24;;;;;;;6.47;0.95;;;0.90;99.90;;;;;;5059858;28;20064;-70
2023/01/17 04:48:50;;;;;;;3.65;0.98;;;0.90;99.90;;;;;;5058319;28;20371;-70
2023/01/17 04:51:15;;;;;;;4.35;1.10;;;0.90;99.90;;;;;;5061627;28;20028;-69
2023/01/17 04:53:41;;;;;;;7.63;1.10;;;0.90;99.90;;;;;;5071517;28;20032;-69
2023/01/17 04:56:07;;;;;;;7.55;2.10;;;0.90;99.90;;;;;;5058041;28;20083;-69
2023/01/17 04:58:32;;;;;;;4.70;1.05;;;0.90;99.90;;;;;;5063593;28;20025;-69
2023/01/17 05:01:03;;;;;;;3.58;0.80;;;0.90;99.90;;;;;;5053758;28;20045;-69
2023/01/17 05:03:28;;;;;;;3.20;0.90;;;1.00;99.90;;;;;;5053050;28;20029;-69
2023/01/17 05:05:54;;;;;;;6.90;1.08;;;1.00;99.90;;;;;;5055923;28;20154;-69
2023/01/17 05:08:19;;;;;;;5.18;1.00;;;1.00;99.90;;;;;;5058740;28;20056;-70
2023/01/17 05:10:46;;;;;;;5.22;1.10;;;1.00;99.90;;;;;;5065912;28;20021;-69
2023/01/17 05:13:11;;;;;;;6.75;1.08;;;1.00;99.90;;;;;;5069593;28;20100;-69
2023/01/17 05:15:37;;;;;;;8.00;0.98;;;1.00;99.90;;;;;;5056074;28;20100;-70
2023/01/17 05:18:07;;;;;;;3.47;0.70;;;1.00;99.90;;;;;;5062092;28;20103;-70
2023/01/17 05:20:34;;;;;;;7.88;0.90;;;1.00;99.90;;;;;;5056317;28;20043;-69
2023/01/17 05:23:00;;;;;;;4.70;0.82;;;0.90;99.90;;;;;;5057491;28;20029;-68
2023/01/17 05:25:30;;;;;;;6.00;0.73;;;0.90;99.90;;;;;;5058941;28;20047;-68
2023/01/17 05:27:58;;;;;;;7.80;1.00;;;0.90;99.90;;;;;;5062459;28;20033;-69
2023/01/17 05:30:25;;;;;;;4.70;0.68;;;0.90;99.90;;;;;;5083175;28;20040;-70
2023/01/17 05:32:52;;;;;;;6.03;0.60;;;0.80;99.90;;;;;;5058947;28;20089;-69
2023/01/17 05:35:19;;;;;;;2.55;0.60;;;0.80;99.90;;;;;;5056595;28;20025;-69
2023/01/17 05:37:47;;;;;;;10.93;1.00;;;0.80;99.90;;;;;;5068281;28;20033;-69
2023/01/17 05:40:15;;;;;;;8.60;0.70;;;0.80;99.90;;;;;;5066152;28;20056;-70
2023/01/17 05:42:49;;;;;;;9.27;0.60;;;0.80;99.90;;;;;;5059130;28;20116;-69
2023/01/17 05:45:16;;;;;;;4.13;0.60;;;0.80;99.90;;;;;;5064674;28;20045;-69
2023/01/17 05:47:49;;;;;;;4.90;0.40;;;0.70;99.90;;;;;;5062966;28;20089;-69
2023/01/17 05:50:21;;;;;;;6.65;0.55;;;0.80;99.90;;;;;;5055795;28;20392;-70
2023/01/17 05:52:55;;;;;;;3.53;0.63;;;0.70;99.90;;;;;;5066071;28;20024;-69
2023/01/17 05:55:22;;;;;;;4.07;0.75;;;0.70;99.90;;;;;;5071198;28;20032;-70
2023/01/17 05:57:48;;;;;;;5.35;0.88;;;0.70;99.90;;;;;;5065442;28;20059;-70
2023/01/17 06:00:14;;;;;;;7.60;0.88;;;0.70;99.90;;;;;;5066064;28;20124;-69
2023/01/17 06:02:40;;;;;;;3.15;0.68;;;0.70;99.90;;;;;;5055481;28;20111;-70
2023/01/17 06:05:05;;;;;;;6.30;1.15;;;0.60;99.90;;;;;;5066505;28;20024;-70
2023/01/17 06:07:31;;;;;;;6.30;1.35;;;0.60;99.90;;;;;;5065274;28;20037;-71
2023/01/17 06:09:57;;;;;;;6.97;1.25;;;0.60;99.90;;;;;;5057437;28;20068;-71
2023/01/17 06:12:22;;;;;;;9.30;1.40;;;0.60;99.90;;;;;;5053585;28;20029;-69
2023/01/17 06:14:48;;;;;;;7.55;1.88;;;0.60;99.90;;;;;;5055813;28;20025;-68
2023/01/17 06:17:13;;;;;;;8.65;1.70;;;0.60;99.90;;;;;;5063377;28;20033;-69
2023/01/17 06:19:39;;;;;;;11.57;2.00;;;0.60;99.90;;;;;;5069599;28;20471;-70
2023/01/17 06:22:04;;;;;;;8.57;1.85;;;0.60;99.90;;;;;;5080912;28;20522;-69
2023/01/17 06:24:30;;;;;;;7.10;1.88;;;0.60;99.90;;;;;;5071489;28;20040;-69
2023/01/17 06:26:56;;;;;;;8.40;1.80;;;0.60;99.90;;;;;;5066419;28;20146;-70
2023/01/17 06:29:22;;;;;;;12.23;2.35;;;0.60;99.90;;;;;;5068084;28;20028;-70
2023/01/17 06:31:47;;;;;;;9.98;2.30;;;0.60;99.90;;;;;;5061378;28;20032;-70
2023/01/17 06:34:13;;;;;;;15.07;3.22;;;0.60;99.90;;;;;;5066429;28;20020;-70
2023/01/17 06:36:38;;;;;;;11.93;3.75;;;0.60;99.90;;;;;;5055819;28;20036;-70
2023/01/17 06:39:04;;;;;;;15.38;4.18;;;0.60;99.90;;;;;;5070977;28;20029;-71
2023/01/17 06:41:30;;;;;;;14.63;3.95;;;0.60;99.90;;;;;;5065342;28;20028;-71
2023/01/17 06:43:55;;;;;;;15.95;4.18;;;0.60;99.90;;;;;;5061176;28;20021;-69
2023/01/17 06:46:22;;;;;;;15.85;4.05;;;0.60;99.90;;;;;;5061054;28;20147;-71
2023/01/17 06:48:48;;;;;;;25.33;5.03;;;0.60;99.90;;;;;;5069173;28;20013;-69
2023/01/17 06:51:14;;;;;;;20.17;5.00;;;0.60;99.90;;;;;;5060476;28;20361;-70
2023/01/17 06:53:40;;;;;;;14.00;5.28;;;0.60;99.90;;;;;;5056752;28;20139;-69
2023/01/17 06:56:06;;;;;;;16.13;5.60;;;0.60;99.90;;;;;;5055374;28;20494;-70
2023/01/17 06:58:32;;;;;;;13.95;5.65;;;0.60;99.90;;;;;;5070445;28;20033;-70
2023/01/17 07:00:57;;;;;;;15.38;5.32;;;0.60;99.90;;;;;;5062274;28;20044;-70
2023/01/17 07:03:25;;;;;;;15.38;5.30;;;0.60;99.90;;;;;;5084373;28;20013;-70
2023/01/17 07:05:59;;;;;;;17.95;6.10;;;0.60;99.90;;;;;;5065235;28;20472;-70
2023/01/17 07:08:27;;;;;;;16.77;5.75;;;0.50;99.90;;;;;;5068066;28;20542;-72
2023/01/17 07:10:58;;;;;;;16.77;5.65;;;0.50;99.90;;;;;;5064561;28;20508;-70
2023/01/17 07:13:23;;;;;;;16.10;5.40;;;0.50;99.90;;;;;;5061405;28;20670;-70
2023/01/17 07:15:49;;;;;;;28.13;6.10;;;0.50;99.90;;;;;;5055947;28;20028;-70
2023/01/17 07:18:19;;;;;;;19.13;6.40;;;0.50;99.90;;;;;;5059317;28;20081;-70
2023/01/17 07:20:45;;;;;;;23.27;6.60;;;0.50;99.90;;;;;;5060176;28;20119;-70
2023/01/17 07:23:11;;;;;;;25.50;8.35;;;0.50;99.90;;;;;;5053155;28;20436;-70
2023/01/17 07:25:37;;;;;;;18.85;7.10;;;0.40;99.90;;;;;;5060427;28;20025;-70
2023/01/17 07:28:02;;;;;;;22.45;8.00;;;0.50;99.90;;;;;;5064882;28;20024;-71
2023/01/17 07:30:28;;;;;;;24.35;8.30;;;0.50;99.90;;;;;;5065768;28;20043;-71
2023/01/17 07:32:54;;;;;;;26.90;9.48;;;0.40;99.90;;;;;;5059042;28;20024;-71
2023/01/17 07:35:20;;;;;;;23.35;9.52;;;0.40;99.90;;;;;;5058204;28;20028;-71
2023/01/17 07:37:50;;;;;;;25.40;9.75;;;0.40;99.90;;;;;;5063231;28;20035;-71
2023/01/17 07:40:17;;;;;;;33.75;10.35;;;0.40;99.90;;;;;;5062126;28;20020;-70
2023/01/17 07:42:46;;;;;;;26.13;10.73;;;0.40;99.90;;;;;;5058893;28;20035;-70
2023/01/17 07:45:13;;;;;;;27.75;10.18;;;0.40;99.90;;;;;;5062103;28;20044;-71
2023/01/17 07:47:39;;;;;;;29.88;11.55;;;0.40;99.90;;;;;;5058969;28;20436;-71
2023/01/17 07:50:06;;;;;;;38.72;13.02;;;0.40;99.90;;;;;;5056658;28;20035;-71
2023/01/17 07:52:31;;;;;;;28.13;11.52;;;0.40;99.90;;;;;;5066417;28;20031;-71
2023/01/17 07:54:57;;;;;;;36.28;12.70;;;0.40;99.90;;;;;;5054661;28;20093;-71
2023/01/17 07:57:23;;;;;;;35.08;14.30;;;0.30;99.90;;;;;;5053532;28;20025;-71
2023/01/17 07:59:49;;;;;;;33.70;14.63;;;0.40;99.90;;;;;;5069880;28;20047;-71
2023/01/17 08:02:20;;;;;;;35.38;15.20;;;0.30;99.90;;;;;;5068642;28;20522;-70
2023/01/17 08:04:47;;;;;;;44.55;16.60;;;0.40;99.90;;;;;;5066334;28;20021;-71
2023/01/17 08:07:13;;;;;;;33.95;16.88;;;0.40;99.90;;;;;;5054740;28;20029;-71
2023/01/17 08:09:40;;;;;;;43.03;16.80;;;0.30;99.90;;;;;;5061135;28;20029;-71
2023/01/17 08:12:06;;;;;;;33.28;16.13;;;0.40;99.90;;;;;;5063843;28;20033;-70
2023/01/17 08:14:31;;;;;;;40.78;18.13;;;0.30;99.90;;;;;;5056788;28;20481;-71
2023/01/17 08:17:10;;;;;;;39.97;17.70;;;0.40;99.90;;;;;;5070674;28;20059;-71
2023/01/17 08:19:36;;;;;;;38.50;16.38;;;0.40;99.90;;;;;;5061320;28;20077;-71
2023/01/17 08:22:02;;;;;;;47.72;19.02;;;0.40;99.90;;;;;;5052056;28;20029;-71
2023/01/17 08:24:27;;;;;;;46.33;19.40;;;0.40;99.90;;;;;;5058592;28;20072;-71
2023/01/17 08:26:55;;;;;;;46.50;18.20;;;0.40;99.90;;;;;;5067627;28;20028;-71
2023/01/17 08:29:21;;;;;;;38.42;18.40;;;0.40;99.90;;;;;;5060680;28;20040;-72
2023/01/17 08:31:47;;;;;;;38.28;17.85;;;0.40;99.90;;;;;;5067589;28;20059;-71
2023/01/17 08:34:13;;;;;;;46.55;20.25;;;0.40;99.90;;;;;;5060753;28;20056;-71
2023/01/17 08:36:39;;;;;;;42.47;19.58;;;0.50;99.90;;;;;;5067202;28;20361;-72
2023/01/17 08:39:05;;;;;;;40.33;20.70;;;0.40;99.90;;;;;;5057430;28;20469;-70
2023/01/17 08:41:31;;;;;;;42.20;19.17;;;0.40;99.90;;;;;;5061569;28;20040;-70
2023/01/17 08:43:56;;;;;;;38.78;18.67;;;0.50;99.90;;;;;;5058428;28;20036;-71
2023/01/17 08:46:23;;;;;;;44.70;19.35;;;0.40;99.90;;;;;;5059881;28;20055;-72
2023/01/17 08:48:57;;;;;;;37.60;18.35;;;0.40;99.90;;;;;;5058757;28;20033;-71
2023/01/17 08:51:25;;;;;;;39.38;19.08;;;0.40;99.90;;;;;;5062923;28;20028;-72
2023/01/17 08:53:51;;;;;;;38.97;18.48;;;0.50;99.90;;;;;;5051402;28;20488;-72
2023/01/17 08:56:17;;;;;;;43.28;17.13;;;0.40;99.90;;;;;;5058552;28;20111;-71
2023/01/17 08:58:42;;;;;;;39.58;18.90;;;0.40;99.90;;;;;;5059630;28;20155;-72
2023/01/17 09:01:08;;;;;;;36.85;18.10;;;0.50;99.90;;;;;;5065125;28;20068;-72
2023/01/17 09:03:34;;;;;;;44.97;19.67;;;0.50;99.90;;;;;;5067882;28;20029;-72
2023/01/17 09:06:12;;;;;;;37.63;18.35;;;0.50;99.90;;;;;;5067237;28;20111;-72
2023/01/17 09:08:38;;;;;;;37.47;18.20;;;0.60;99.90;;;;;;5063106;28;20493;-72
2023/01/17 09:11:05;;;;;;;34.83;19.98;;;0.60;99.90;;;;;;5068285;28;20675;-72
2023/01/17 09:13:31;;;;;;;44.00;17.80;;;0.60;99.90;;;;;;5063861;28;20036;-71
2023/01/17 09:15:58;;;;;;;40.70;18.20;;;0.60;99.90;;;;;;5055040;28;20401;-70
2023/01/17 09:18:25;;;;;;;38.22;18.15;;;0.70;99.90;;;;;;5061601;28;20029;-71
2023/01/17 09:20:54;;;;;;;40.50;17.90;;;0.70;99.90;;;;;;5072066;28;20082;-70
2023/01/17 09:23:21;;;;;;;35.60;17.15;;;0.80;99.90;;;;;;5073431;28;20059;-70
2023/01/17 09:25:58;;;;;;;42.00;17.92;;;0.80;99.90;;;;;;5067057;28;20017;-70
2023/01/17 09:28:25;;;;;;;38.63;18.65;;;0.90;99.90;;;;;;5072988;28;20055;-70
2023/01/17 09:30:51;;;;;;;33.20;16.52;;;0.90;99.90;;;;;;5067402;28;20506;-70
2023/01/17 09:33:17;;;;;;;33.70;16.23;;;1.00;99.90;;;;;;5067659;28;20054;-70
2023/01/17 09:35:44;;;;;;;36.03;17.23;;;1.00;99.90;;;;;;5065398;28;20021;-70
2023/01/17 09:38:10;;;;;;;33.70;17.13;;;1.10;99.90;;;;;;5066003;28;20122;-71
2023/01/17 09:40:40;;;;;;;30.60;17.00;;;1.10;99.90;;;;;;5064167;28;20415;-72
2023/01/17 09:43:20;;;;;;;35.50;15.82;;;1.20;99.90;;;;;;5072981;28;20036;-71
2023/01/17 09:45:45;;;;;;;30.77;16.63;;;1.20;99.90;;;;;;5073540;28;20439;-71
2023/01/17 09:48:20;;;;;;;30.55;16.10;;;1.20;99.90;;;;;;5065302;28;20090;-71
2023/01/17 09:51:03;;;;;;;32.13;15.40;;;1.20;99.90;;;;;;5073173;28;20037;-71
2023/01/17 09:53:32;;;;;;;26.63;14.63;;;1.20;99.90;;;;;;5065518;28;20020;-71
2023/01/17 09:56:08;;;;;;;35.65;15.20;;;1.20;99.90;;;;;;5066699;28;20044;-71
2023/01/17 09:59:15;;;;;;;29.58;15.23;;;1.20;99.90;;;;;;5064150;28;20108;-71
2023/01/17 10:01:55;;;;;;;28.20;14.93;;;1.30;99.90;;;;;;5056948;28;20123;-71
2023/01/17 10:04:51;;;;;;;29.48;15.23;;;1.30;99.90;;;;;;5064366;28;20127;-71
2023/01/17 10:08:06;;;;;;;26.83;13.90;;;1.40;99.90;;;;;;5066220;28;20151;-71
2023/01/17 10:10:46;;;;;;;24.38;13.90;;;1.50;99.90;;;;;;5058482;28;20385;-71
2023/01/17 10:13:43;;;;;;;28.10;13.75;;;1.50;99.90;;;;;;5059038;28;20021;-71
2023/01/17 10:16:40;;;;;;;27.88;14.23;;;1.70;99.90;;;;;;5052635;28;20108;-71
2023/01/17 10:19:15;;;;;;;29.30;13.80;;;1.70;99.90;;;;;;5072166;28;20032;-71
2023/01/17 10:21:57;;;;;;;23.85;12.30;;;1.80;99.90;;;;;;5065579;28;20036;-72
2023/01/17 10:24:53;;;;;;;22.27;12.60;;;1.80;99.90;;;;;;5072533;28;20090;-71
2023/01/17 10:27:24;;;;;;;26.08;12.52;;;1.80;99.90;;;;;;5068037;28;20027;-71
2023/01/17 10:29:50;;;;;;;25.83;12.88;;;1.80;99.90;;;;;;5065878;28;20029;-71
2023/01/17 10:32:16;;;;;;;24.35;12.63;;;1.80;99.90;;;;;;5069040;28;20021;-70
2023/01/17 10:34:52;;;;;;;28.20;12.93;;;1.80;99.90;;;;;;5071847;28;20499;-71
2023/01/17 10:37:26;;;;;;;26.50;12.43;;;1.90;99.90;;;;;;5059793;28;20054;-71
2023/01/17 10:39:56;;;;;;;24.13;12.93;;;1.90;99.90;;;;;;5060461;28;20128;-71
2023/01/17 10:42:32;;;;;;;27.42;12.27;;;1.90;99.90;;;;;;5071217;28;20039;-71
2023/01/17 10:45:04;;;;;;;26.48;13.20;;;2.00;99.90;;;;;;5057288;28;20068;-71
2023/01/17 10:47:35;;;;;;;22.30;11.43;;;2.00;99.90;;;;;;5069422;28;20024;-71
2023/01/17 10:50:03;;;;;;;20.27;11.65;;;2.00;99.90;;;;;;5071166;28;20074;-71
2023/01/17 10:52:29;;;;;;;26.73;13.00;;;2.10;99.90;;;;;;5054263;28;20037;-71
2023/01/17 10:55:33;;;;;;;25.73;12.40;;;2.00;99.90;;;;;;5057271;28;20025;-71
2023/01/17 10:57:58;;;;;;;22.63;12.32;;;2.00;99.90;;;;;;5056984;28;20041;-71
2023/01/17 11:00:32;;;;;;;21.50;11.93;;;2.00;99.90;;;;;;5057156;28;20384;-71
2023/01/17 11:02:59;;;;;;;24.17;11.48;;;2.10;99.90;;;;;;5058064;28;20485;-71
2023/01/17 11:05:27;;;;;;;22.65;13.02;;;2.10;99.90;;;;;;5065235;28;20381;-71
2023/01/17 11:08:00;;;;;;;20.30;11.48;;;2.20;99.90;;;;;;5057936;28;20029;-71
2023/01/17 11:10:42;;;;;;;21.45;11.68;;;2.30;99.90;;;;;;5066414;28;20090;-71
2023/01/17 11:13:35;;;;;;;22.63;13.10;;;2.30;99.90;;;;;;5063658;28;20384;-71
2023/01/17 11:16:09;;;;;;;22.55;10.55;;;2.40;99.90;;;;;;5065646;28;20095;-71
2023/01/17 11:18:37;;;;;;;18.75;10.45;;;2.40;99.90;;;;;;5058924;28;20403;-72
2023/01/17 11:21:22;;;;;;;19.48;10.23;;;2.40;99.90;;;;;;5058550;28;20044;-71
2023/01/17 11:23:51;;;;;;;20.05;10.63;;;2.40;99.90;;;;;;5055886;28;20048;-71
2023/01/17 11:26:27;;;;;;;20.25;9.38;;;2.40;99.90;;;;;;5057274;28;20096;-71
2023/01/17 11:29:13;;;;;;;19.02;9.05;;;2.40;99.90;;;;;;5067301;28;20107;-71
2023/01/17 11:31:39;;;;;;;19.23;9.48;;;2.40;99.90;;;;;;5066715;28;20099;-72
2023/01/17 11:34:22;;;;;;;15.35;8.77;;;2.40;99.90;;;;;;5062259;28;20183;-71
2023/01/17 11:36:49;;;;;;;20.13;9.90;;;2.40;99.90;;;;;;5061205;28;20028;-71
2023/01/17 11:39:17;;;;;;;23.17;9.98;;;2.40;99.90;;;;;;5056221;28;20376;-71
2023/01/17 11:41:44;;;;;;;16.70;8.50;;;2.50;99.90;;;;;;5055395;28;20041;-71
2023/01/17 11:44:31;;;;;;;16.42;8.27;;;2.50;99.90;;;;;;5064292;28;20098;-70
2023/01/17 11:47:11;;;;;;;18.45;8.60;;;2.50;99.90;;;;;;5067092;28;20024;-71
2023/01/17 11:49:42;;;;;;;15.30;7.25;;;2.60;99.90;;;;;;5059173;28;20032;-70
2023/01/17 11:52:18;;;;;;;13.20;6.90;;;2.60;99.90;;;;;;5064970;28;20024;-70
2023/01/17 11:54:46;;;;;;;14.48;7.05;;;2.60;99.90;;;;;;5051652;28;20025;-72
2023/01/17 11:57:33;;;;;;;11.48;6.45;;;2.70;99.90;;;;;;5062299;28;20021;-71
2023/01/17 12:00:18;;;;;;;17.23;6.68;;;2.80;99.90;;;;;;5059351;28;20072;-72
2023/01/17 12:03:18;;;;;;;15.10;6.40;;;2.90;99.90;;;;;;5060652;28;20487;-71
2023/01/17 12:06:03;;;;;;;18.30;6.95;;;2.90;99.90;;;;;;5052263;28;20021;-72
2023/01/17 12:08:38;;;;;;;13.13;6.70;;;3.00;99.90;;;;;;5055662;28;20036;-72
2023/01/17 12:11:15;;;;;;;15.60;8.10;;;3.10;99.90;;;;;;5067238;28;20071;-73
2023/01/17 12:14:26;;;;;;;14.00;7.40;;;3.20;99.90;;;;;;5065141;28;20021;-72
2023/01/17 12:17:21;;;;;;;18.25;7.22;;;3.20;99.90;;;;;;5057994;28;20415;-72
2023/01/17 12:20:04;;;;;;;14.50;6.28;;;3.20;99.90;;;;;;5063390;28;20095;-72
2023/01/17 12:22:49;;;;;;;12.18;5.20;;;3.30;99.90;;;;;;5065096;28;20028;-72
2023/01/17 12:25:54;;;;;;;13.30;5.25;;;3.30;99.90;;;;;;5070680;28;20024;-73
2023/01/17 12:28:53;;;;;;;12.35;5.13;;;3.30;99.90;;;;;;5065630;28;20020;-72
2023/01/17 12:31:39;;;;;;;7.30;3.90;;;3.40;99.90;;;;;;5057198;28;20546;-72
2023/01/17 12:34:31;;;;;;;7.90;2.78;;;3.50;99.90;;;;;;5057939;28;20488;-72
2023/01/17 12:37:25;;;;;;;4.00;2.90;;;3.50;99.90;;;;;;5083868;28;20559;-72
2023/01/17 12:40:00;;;;;;;5.30;2.70;;;3.60;99.90;;;;;;5057662;28;20381;-72
2023/01/17 12:42:34;;;;;;;4.65;2.70;;;3.50;99.90;;;;;;5070084;28;20033;-72
2023/01/17 12:45:08;;;;;;;6.55;2.28;;;3.50;99.90;;;;;;5058439;28;20041;-72
2023/01/17 12:47:39;;;;;;;12.48;3.17;;;3.50;99.90;;;;;;5072080;28;20032;-72
2023/01/17 12:50:14;;;;;;;7.03;3.35;;;3.50;99.90;;;;;;5069938;28;20036;-72
2023/01/17 12:53:01;;;;;;;7.07;3.20;;;3.50;99.90;;;;;;5061169;28;20032;-72
2023/01/17 12:56:00;;;;;;;7.22;3.42;;;3.60;99.90;;;;;;5057032;28;20457;-73
2023/01/17 12:58:40;;;;;;;9.40;2.70;;;3.60;99.90;;;;;;5067348;28;20361;-72
2023/01/17 13:01:38;;;;;;;6.22;2.80;;;3.60;99.90;;;;;;5063872;28;20090;-72
2023/01/17 13:04:27;;;;;;;7.72;2.97;;;3.70;99.90;;;;;;5055602;28;20044;-72
2023/01/17 13:07:00;;;;;;;6.75;2.80;;;3.60;99.90;;;;;;5060501;28;20029;-73
2023/01/17 13:09:38;;;;;;;9.30;3.30;;;3.70;99.90;;;;;;5069391;28;20016;-73
2023/01/17 13:12:13;;;;;;;6.82;2.90;;;3.70;99.90;;;;;;5067056;28;20110;-72
2023/01/17 13:14:38;;;;;;;4.65;2.40;;;3.80;99.90;;;;;;5064894;28;20094;-72
2023/01/17 13:17:12;;;;;;;3.97;2.00;;;3.80;99.90;;;;;;5064388;28;20020;-72
2023/01/17 13:19:44;;;;;;;4.90;1.98;;;3.80;99.90;;;;;;5058263;28;20029;-72
2023/01/17 13:22:16;;;;;;;6.20;2.38;;;3.90;99.90;;;;;;5056159;28;20068;-72
2023/01/17 13:25:17;;;;;;;8.32;2.55;;;3.90;99.90;;;;;;5065066;28;20031;-73
2023/01/17 13:27:58;;;;;;;5.05;1.70;;;3.90;99.90;;;;;;5010790;28;20532;-72
2023/01/17 13:30:54;;;;;;;5.03;1.85;;;3.90;99.90;;;;;;5065008;28;20031;-73
2023/01/17 13:33:45;;;;;;;4.38;1.65;;;4.00;99.90;;;;;;5055571;28;20032;-73
2023/01/17 13:36:39;;;;;;;3.13;1.00;;;4.00;99.90;;;;;;5058084;28;20058;-71
2023/01/17 13:39:35;;;;;;;5.45;1.15;;;4.10;99.90;;;;;;5058683;28;20120;-71
2023/01/17 13:42:22;;;;;;;2.83;0.70;;;4.10;99.90;;;;;;5061701;28;20119;-72
2023/01/17 13:44:49;;;;;;;7.38;0.75;;;4.10;99.90;;;;;;5020273;28;1090468;-72
2023/01/17 13:47:17;;;;;;;3.92;0.70;;;4.10;99.90;;;;;;5057318;28;20048;-71
2023/01/17 13:49:52;;;;;;;7.47;0.80;;;4.10;99.90;;;;;;5067764;28;20024;-72
2023/01/17 13:52:18;;;;;;;4.03;0.60;;;4.10;99.90;;;;;;5059784;28;20028;-73
2023/01/17 13:55:04;;;;;;;1.60;0.47;;;4.20;99.90;;;;;;5080509;28;20032;-72
2023/01/17 13:57:33;;;;;;;3.80;0.82;;;4.20;99.90;;;;;;5058526;28;20499;-72
2023/01/17 14:00:21;;;;;;;3.42;0.50;;;4.20;99.90;;;;;;5072738;28;20029;-73
2023/01/17 14:02:48;;;;;;;1.30;0.50;;;4.30;99.90;;;;;;5068521;28;20041;-72
2023/01/17 14:05:15;;;;;;;2.60;0.50;;;4.30;99.90;;;;;;5073342;28;20056;-72
2023/01/17 14:07:52;;;;;;;1.67;0.50;;;4.30;99.90;;;;;;5059640;28;20555;-71
2023/01/17 14:10:40;;;;;;;3.85;0.40;;;4.30;99.90;;;;;;5066210;28;20033;-71
2023/01/17 14:13:30;;;;;;;2.22;0.47;;;4.20;99.90;;;;;;5062979;28;20032;-71
2023/01/17 14:15:56;;;;;;;3.80;0.75;;;4.20;99.90;;;;;;5064421;28;20024;-71
2023/01/17 14:18:31;;;;;;;2.00;0.30;;;4.10;99.90;;;;;;5053143;28;20021;-72
2023/01/17 14:21:32;;;;;;;2.92;0.30;;;4.10;99.90;;;;;;5063933;28;20052;-73
2023/01/17 14:24:12;;;;;;;1.40;0.30;;;4.10;99.90;;;;;;5072621;28;20068;-73
2023/01/17 14:27:13;;;;;;;2.22;0.40;;;4.10;99.90;;;;;;5054881;28;20060;-73
2023/01/17 14:29:47;;;;;;;2.00;0.40;;;4.10;99.90;;;;;;5054001;28;20155;-73
2023/01/17 14:32:16;;;;;;;4.38;0.30;;;4.00;99.90;;;;;;5068063;28;20025;-73
2023/01/17 14:34:47;;;;;;;18.80;3.10;;;4.00;99.90;;;;;;5061879;28;20028;-73
2023/01/17 14:37:48;;;;;;;7.88;2.58;;;3.90;99.90;;;;;;5063627;28;20025;-73
2023/01/17 14:40:16;;;;;;;1.80;0.80;;;3.90;99.90;;;;;;5065549;28;20085;-73
2023/01/17 14:42:42;;;;;;;2.25;0.50;;;3.80;99.90;;;;;;5065987;28;20089;-73